sensor_id;sensor_type;location;lat;lon;timestamp;P1;durP1;ratioP1;P2;durP2;ratioP2
75195;SDS011;63773;42.282;22.782;2023-04-24T00:00:42;16.60;;;10.80;;
75195;SDS011;63773;42.282;22.782;2023-04-24T00:03:09;14.60;;;10.07;;
75195;SDS011;63773;42.282;22.782;2023-04-24T00:05:36;15.10;;;9.73;;
75195;SDS011;63773;42.282;22.782;2023-04-24T00:08:01;14.82;;;9.32;;
75195;SDS011;63773;42.282;22.782;2023-04-24T00:10:26;13.85;;;9.57;;
75195;SDS011;63773;42.282;22.782;2023-04-24T00:12:52;13.85;;;9.38;;
75195;SDS011;63773;42.282;22.782;2023-04-24T00:15:18;15.75;;;9.00;;
75195;SDS011;63773;42.282;22.782;2023-04-24T00:17:43;15.65;;;9.32;;
75195;SDS011;63773;42.282;22.782;2023-04-24T00:20:09;16.25;;;9.23;;
75195;SDS011;63773;42.282;22.782;2023-04-24T00:22:35;12.20;;;9.20;;
75195;SDS011;63773;42.282;22.782;2023-04-24T00:25:01;14.07;;;9.20;;
75195;SDS011;63773;42.282;22.782;2023-04-24T00:27:26;13.93;;;8.93;;
75195;SDS011;63773;42.282;22.782;2023-04-24T00:29:51;13.95;;;9.15;;
75195;SDS011;63773;42.282;22.782;2023-04-24T00:32:17;14.77;;;8.13;;
75195;SDS011;63773;42.282;22.782;2023-04-24T00:34:42;17.83;;;10.35;;
75195;SDS011;63773;42.282;22.782;2023-04-24T00:37:08;14.15;;;8.55;;
75195;SDS011;63773;42.282;22.782;2023-04-24T00:39:33;12.82;;;9.07;;
75195;SDS011;63773;42.282;22.782;2023-04-24T00:41:59;14.32;;;9.70;;
75195;SDS011;63773;42.282;22.782;2023-04-24T00:44:24;14.95;;;9.13;;
75195;SDS011;63773;42.282;22.782;2023-04-24T00:46:50;15.80;;;10.13;;
75195;SDS011;63773;42.282;22.782;2023-04-24T00:49:19;14.77;;;8.85;;
75195;SDS011;63773;42.282;22.782;2023-04-24T00:51:45;13.07;;;9.65;;
75195;SDS011;63773;42.282;22.782;2023-04-24T00:54:12;16.48;;;10.05;;
75195;SDS011;63773;42.282;22.782;2023-04-24T00:56:38;16.52;;;9.60;;
75195;SDS011;63773;42.282;22.782;2023-04-24T00:59:04;15.32;;;11.27;;
75195;SDS011;63773;42.282;22.782;2023-04-24T01:01:30;13.98;;;9.40;;
75195;SDS011;63773;42.282;22.782;2023-04-24T01:03:55;18.20;;;10.38;;
75195;SDS011;63773;42.282;22.782;2023-04-24T01:06:22;16.05;;;9.88;;
75195;SDS011;63773;42.282;22.782;2023-04-24T01:08:52;13.95;;;9.20;;
75195;SDS011;63773;42.282;22.782;2023-04-24T01:11:18;15.15;;;9.95;;
75195;SDS011;63773;42.282;22.782;2023-04-24T01:13:43;17.27;;;11.13;;
75195;SDS011;63773;42.282;22.782;2023-04-24T01:16:10;16.40;;;10.50;;
75195;SDS011;63773;42.282;22.782;2023-04-24T01:18:35;26.23;;;11.68;;
75195;SDS011;63773;42.282;22.782;2023-04-24T01:21:02;17.67;;;11.07;;
75195;SDS011;63773;42.282;22.782;2023-04-24T01:25:55;17.70;;;11.18;;
75195;SDS011;63773;42.282;22.782;2023-04-24T01:28:20;16.15;;;10.32;;
75195;SDS011;63773;42.282;22.782;2023-04-24T01:30:46;21.00;;;11.95;;
75195;SDS011;63773;42.282;22.782;2023-04-24T01:33:12;18.77;;;10.45;;
75195;SDS011;63773;42.282;22.782;2023-04-24T01:35:38;17.38;;;10.63;;
75195;SDS011;63773;42.282;22.782;2023-04-24T01:38:03;18.25;;;10.10;;
75195;SDS011;63773;42.282;22.782;2023-04-24T01:40:30;21.40;;;11.55;;
75195;SDS011;63773;42.282;22.782;2023-04-24T01:42:56;17.25;;;10.38;;
75195;SDS011;63773;42.282;22.782;2023-04-24T01:45:22;15.07;;;9.82;;
75195;SDS011;63773;42.282;22.782;2023-04-24T01:47:48;16.88;;;10.82;;
75195;SDS011;63773;42.282;22.782;2023-04-24T01:50:15;17.65;;;11.70;;
75195;SDS011;63773;42.282;22.782;2023-04-24T01:52:40;17.50;;;10.27;;
75195;SDS011;63773;42.282;22.782;2023-04-24T01:55:06;20.55;;;11.05;;
75195;SDS011;63773;42.282;22.782;2023-04-24T01:57:32;18.02;;;11.35;;
75195;SDS011;63773;42.282;22.782;2023-04-24T01:59:58;16.80;;;11.50;;
75195;SDS011;63773;42.282;22.782;2023-04-24T02:02:23;17.70;;;10.52;;
75195;SDS011;63773;42.282;22.782;2023-04-24T02:04:51;16.08;;;10.25;;
75195;SDS011;63773;42.282;22.782;2023-04-24T02:07:17;15.93;;;10.10;;
75195;SDS011;63773;42.282;22.782;2023-04-24T02:09:42;19.83;;;10.52;;
75195;SDS011;63773;42.282;22.782;2023-04-24T02:12:08;16.77;;;10.95;;
75195;SDS011;63773;42.282;22.782;2023-04-24T02:14:33;18.00;;;10.15;;
75195;SDS011;63773;42.282;22.782;2023-04-24T02:16:59;15.85;;;10.65;;
75195;SDS011;63773;42.282;22.782;2023-04-24T02:19:25;19.55;;;11.32;;
75195;SDS011;63773;42.282;22.782;2023-04-24T02:21:51;17.10;;;10.48;;
75195;SDS011;63773;42.282;22.782;2023-04-24T02:24:16;14.85;;;9.95;;
75195;SDS011;63773;42.282;22.782;2023-04-24T02:26:42;16.33;;;10.35;;
75195;SDS011;63773;42.282;22.782;2023-04-24T02:29:07;16.88;;;10.45;;
75195;SDS011;63773;42.282;22.782;2023-04-24T02:31:33;16.67;;;10.48;;
75195;SDS011;63773;42.282;22.782;2023-04-24T02:33:58;16.60;;;11.18;;
75195;SDS011;63773;42.282;22.782;2023-04-24T02:36:24;15.95;;;10.18;;
75195;SDS011;63773;42.282;22.782;2023-04-24T02:38:50;14.55;;;9.80;;
75195;SDS011;63773;42.282;22.782;2023-04-24T02:41:15;17.90;;;10.70;;
75195;SDS011;63773;42.282;22.782;2023-04-24T02:43:40;17.98;;;10.07;;
75195;SDS011;63773;42.282;22.782;2023-04-24T02:46:06;14.82;;;9.30;;
75195;SDS011;63773;42.282;22.782;2023-04-24T02:48:31;19.08;;;11.32;;
75195;SDS011;63773;42.282;22.782;2023-04-24T02:50:57;15.70;;;10.07;;
75195;SDS011;63773;42.282;22.782;2023-04-24T02:53:22;18.42;;;10.57;;
75195;SDS011;63773;42.282;22.782;2023-04-24T02:55:48;18.73;;;10.75;;
75195;SDS011;63773;42.282;22.782;2023-04-24T02:58:14;16.42;;;10.75;;
75195;SDS011;63773;42.282;22.782;2023-04-24T03:00:39;17.92;;;10.88;;
75195;SDS011;63773;42.282;22.782;2023-04-24T03:03:07;16.67;;;10.02;;
75195;SDS011;63773;42.282;22.782;2023-04-24T03:05:32;20.23;;;11.05;;
75195;SDS011;63773;42.282;22.782;2023-04-24T03:07:57;16.35;;;11.23;;
75195;SDS011;63773;42.282;22.782;2023-04-24T03:10:24;18.60;;;12.05;;
75195;SDS011;63773;42.282;22.782;2023-04-24T03:12:51;15.32;;;10.50;;
75195;SDS011;63773;42.282;22.782;2023-04-24T03:15:16;15.90;;;11.93;;
75195;SDS011;63773;42.282;22.782;2023-04-24T03:17:42;19.52;;;10.90;;
75195;SDS011;63773;42.282;22.782;2023-04-24T03:20:07;18.80;;;12.10;;
75195;SDS011;63773;42.282;22.782;2023-04-24T03:22:33;16.90;;;10.40;;
75195;SDS011;63773;42.282;22.782;2023-04-24T03:24:59;17.02;;;11.30;;
75195;SDS011;63773;42.282;22.782;2023-04-24T03:27:25;17.10;;;10.95;;
75195;SDS011;63773;42.282;22.782;2023-04-24T03:29:50;20.02;;;11.35;;
75195;SDS011;63773;42.282;22.782;2023-04-24T03:32:23;16.85;;;11.02;;
75195;SDS011;63773;42.282;22.782;2023-04-24T03:34:49;17.67;;;10.52;;
75195;SDS011;63773;42.282;22.782;2023-04-24T03:37:15;16.92;;;11.15;;
75195;SDS011;63773;42.282;22.782;2023-04-24T03:39:41;18.25;;;10.82;;
75195;SDS011;63773;42.282;22.782;2023-04-24T03:42:07;18.10;;;10.88;;
75195;SDS011;63773;42.282;22.782;2023-04-24T03:44:35;17.10;;;11.85;;
75195;SDS011;63773;42.282;22.782;2023-04-24T03:49:26;25.48;;;13.82;;
75195;SDS011;63773;42.282;22.782;2023-04-24T03:51:51;40.67;;;26.63;;
75195;SDS011;63773;42.282;22.782;2023-04-24T03:54:17;39.13;;;27.73;;
75195;SDS011;63773;42.282;22.782;2023-04-24T03:56:43;21.35;;;14.30;;
75195;SDS011;63773;42.282;22.782;2023-04-24T03:59:09;18.23;;;12.48;;
75195;SDS011;63773;42.282;22.782;2023-04-24T04:01:36;17.35;;;11.07;;
75195;SDS011;63773;42.282;22.782;2023-04-24T04:04:02;17.83;;;12.43;;
75195;SDS011;63773;42.282;22.782;2023-04-24T04:06:28;19.92;;;12.68;;
75195;SDS011;63773;42.282;22.782;2023-04-24T04:08:55;17.88;;;11.80;;
75195;SDS011;63773;42.282;22.782;2023-04-24T04:11:21;18.55;;;11.35;;
75195;SDS011;63773;42.282;22.782;2023-04-24T04:13:47;18.25;;;10.30;;
75195;SDS011;63773;42.282;22.782;2023-04-24T04:16:14;18.85;;;11.50;;
75195;SDS011;63773;42.282;22.782;2023-04-24T04:18:41;17.88;;;11.00;;
75195;SDS011;63773;42.282;22.782;2023-04-24T04:21:09;14.85;;;10.32;;
75195;SDS011;63773;42.282;22.782;2023-04-24T04:23:34;17.30;;;11.00;;
75195;SDS011;63773;42.282;22.782;2023-04-24T04:26:00;16.48;;;11.23;;
75195;SDS011;63773;42.282;22.782;2023-04-24T04:28:26;16.77;;;10.32;;
75195;SDS011;63773;42.282;22.782;2023-04-24T04:30:51;17.85;;;11.45;;
75195;SDS011;63773;42.282;22.782;2023-04-24T04:33:20;19.08;;;11.23;;
75195;SDS011;63773;42.282;22.782;2023-04-24T04:35:46;16.20;;;10.38;;
75195;SDS011;63773;42.282;22.782;2023-04-24T04:38:17;17.10;;;10.23;;
75195;SDS011;63773;42.282;22.782;2023-04-24T04:44:04;17.00;;;11.65;;
75195;SDS011;63773;42.282;22.782;2023-04-24T04:46:30;16.52;;;11.23;;
75195;SDS011;63773;42.282;22.782;2023-04-24T04:48:58;20.70;;;13.30;;
75195;SDS011;63773;42.282;22.782;2023-04-24T04:51:25;24.88;;;14.23;;
75195;SDS011;63773;42.282;22.782;2023-04-24T04:53:50;19.73;;;13.38;;
75195;SDS011;63773;42.282;22.782;2023-04-24T04:56:15;25.27;;;14.70;;
75195;SDS011;63773;42.282;22.782;2023-04-24T04:58:41;17.02;;;11.00;;
75195;SDS011;63773;42.282;22.782;2023-04-24T05:01:06;13.50;;;9.38;;
75195;SDS011;63773;42.282;22.782;2023-04-24T05:03:32;21.77;;;14.32;;
75195;SDS011;63773;42.282;22.782;2023-04-24T05:05:57;16.67;;;10.23;;
75195;SDS011;63773;42.282;22.782;2023-04-24T05:08:23;13.77;;;9.75;;
75195;SDS011;63773;42.282;22.782;2023-04-24T05:10:48;12.13;;;8.43;;
75195;SDS011;63773;42.282;22.782;2023-04-24T05:13:13;13.23;;;8.25;;
75195;SDS011;63773;42.282;22.782;2023-04-24T05:15:39;13.88;;;8.35;;
75195;SDS011;63773;42.282;22.782;2023-04-24T05:18:04;12.57;;;8.55;;
75195;SDS011;63773;42.282;22.782;2023-04-24T05:20:30;12.52;;;8.90;;
75195;SDS011;63773;42.282;22.782;2023-04-24T05:22:55;13.45;;;9.27;;
75195;SDS011;63773;42.282;22.782;2023-04-24T05:25:21;12.10;;;8.45;;
75195;SDS011;63773;42.282;22.782;2023-04-24T05:27:46;16.77;;;9.95;;
75195;SDS011;63773;42.282;22.782;2023-04-24T05:30:12;13.25;;;8.50;;
75195;SDS011;63773;42.282;22.782;2023-04-24T05:32:37;13.98;;;8.07;;
75195;SDS011;63773;42.282;22.782;2023-04-24T05:35:03;12.70;;;8.48;;
75195;SDS011;63773;42.282;22.782;2023-04-24T05:37:29;10.25;;;7.22;;
75195;SDS011;63773;42.282;22.782;2023-04-24T05:39:54;11.23;;;6.90;;
75195;SDS011;63773;42.282;22.782;2023-04-24T05:42:19;12.57;;;8.05;;
75195;SDS011;63773;42.282;22.782;2023-04-24T05:44:45;11.32;;;7.75;;
75195;SDS011;63773;42.282;22.782;2023-04-24T05:47:10;9.13;;;6.40;;
75195;SDS011;63773;42.282;22.782;2023-04-24T05:49:36;10.98;;;7.05;;
75195;SDS011;63773;42.282;22.782;2023-04-24T05:52:01;10.02;;;6.70;;
75195;SDS011;63773;42.282;22.782;2023-04-24T05:54:29;10.73;;;7.97;;
75195;SDS011;63773;42.282;22.782;2023-04-24T05:56:54;9.27;;;6.47;;
75195;SDS011;63773;42.282;22.782;2023-04-24T05:59:20;11.82;;;6.80;;
75195;SDS011;63773;42.282;22.782;2023-04-24T06:01:46;11.02;;;7.57;;
75195;SDS011;63773;42.282;22.782;2023-04-24T06:04:11;10.38;;;7.00;;
75195;SDS011;63773;42.282;22.782;2023-04-24T06:06:38;10.73;;;6.22;;
75195;SDS011;63773;42.282;22.782;2023-04-24T06:09:03;9.95;;;7.03;;
75195;SDS011;63773;42.282;22.782;2023-04-24T06:11:29;11.90;;;7.25;;
75195;SDS011;63773;42.282;22.782;2023-04-24T06:13:55;8.50;;;6.60;;
75195;SDS011;63773;42.282;22.782;2023-04-24T06:16:21;10.80;;;6.65;;
75195;SDS011;63773;42.282;22.782;2023-04-24T06:18:46;9.35;;;7.40;;
75195;SDS011;63773;42.282;22.782;2023-04-24T06:21:12;10.00;;;6.38;;
75195;SDS011;63773;42.282;22.782;2023-04-24T06:23:38;8.50;;;6.88;;
75195;SDS011;63773;42.282;22.782;2023-04-24T06:26:03;11.10;;;6.93;;
75195;SDS011;63773;42.282;22.782;2023-04-24T06:28:29;10.63;;;7.43;;
75195;SDS011;63773;42.282;22.782;2023-04-24T06:30:54;9.45;;;6.50;;
75195;SDS011;63773;42.282;22.782;2023-04-24T06:33:20;8.88;;;6.00;;
75195;SDS011;63773;42.282;22.782;2023-04-24T06:35:46;7.75;;;5.38;;
75195;SDS011;63773;42.282;22.782;2023-04-24T06:38:11;8.50;;;5.45;;
75195;SDS011;63773;42.282;22.782;2023-04-24T06:40:37;7.82;;;5.63;;
75195;SDS011;63773;42.282;22.782;2023-04-24T06:43:02;8.80;;;5.15;;
75195;SDS011;63773;42.282;22.782;2023-04-24T06:45:28;7.90;;;5.05;;
75195;SDS011;63773;42.282;22.782;2023-04-24T06:47:54;9.93;;;5.05;;
75195;SDS011;63773;42.282;22.782;2023-04-24T06:50:20;8.68;;;5.45;;
75195;SDS011;63773;42.282;22.782;2023-04-24T06:52:45;6.72;;;5.07;;
75195;SDS011;63773;42.282;22.782;2023-04-24T06:55:11;6.93;;;4.43;;
75195;SDS011;63773;42.282;22.782;2023-04-24T06:57:36;7.95;;;4.57;;
75195;SDS011;63773;42.282;22.782;2023-04-24T07:00:02;7.78;;;5.03;;
75195;SDS011;63773;42.282;22.782;2023-04-24T07:02:30;6.93;;;4.70;;
75195;SDS011;63773;42.282;22.782;2023-04-24T07:04:55;7.80;;;5.15;;
75195;SDS011;63773;42.282;22.782;2023-04-24T07:07:21;6.93;;;4.93;;
75195;SDS011;63773;42.282;22.782;2023-04-24T07:09:48;7.30;;;5.15;;
75195;SDS011;63773;42.282;22.782;2023-04-24T07:14:41;6.03;;;4.28;;
75195;SDS011;63773;42.282;22.782;2023-04-24T07:17:07;8.57;;;4.85;;
75195;SDS011;63773;42.282;22.782;2023-04-24T07:19:33;6.40;;;4.30;;
75195;SDS011;63773;42.282;22.782;2023-04-24T07:24:25;7.22;;;5.00;;
75195;SDS011;63773;42.282;22.782;2023-04-24T07:26:51;7.57;;;4.65;;
75195;SDS011;63773;42.282;22.782;2023-04-24T07:29:17;8.23;;;5.28;;
75195;SDS011;63773;42.282;22.782;2023-04-24T07:31:44;6.15;;;4.57;;
75195;SDS011;63773;42.282;22.782;2023-04-24T07:34:09;5.32;;;4.32;;
75195;SDS011;63773;42.282;22.782;2023-04-24T07:36:35;7.85;;;4.38;;
75195;SDS011;63773;42.282;22.782;2023-04-24T07:39:03;7.15;;;4.80;;
75195;SDS011;63773;42.282;22.782;2023-04-24T07:41:29;7.40;;;5.45;;
75195;SDS011;63773;42.282;22.782;2023-04-24T07:43:55;7.32;;;4.72;;
75195;SDS011;63773;42.282;22.782;2023-04-24T07:46:20;5.85;;;4.70;;
75195;SDS011;63773;42.282;22.782;2023-04-24T07:48:46;6.25;;;4.15;;
75195;SDS011;63773;42.282;22.782;2023-04-24T07:51:13;6.32;;;4.32;;
75195;SDS011;63773;42.282;22.782;2023-04-24T07:53:39;6.82;;;4.72;;
75195;SDS011;63773;42.282;22.782;2023-04-24T07:56:05;5.38;;;4.30;;
75195;SDS011;63773;42.282;22.782;2023-04-24T07:58:30;6.32;;;4.72;;
75195;SDS011;63773;42.282;22.782;2023-04-24T08:00:56;7.57;;;4.55;;
75195;SDS011;63773;42.282;22.782;2023-04-24T08:03:21;7.22;;;4.20;;
75195;SDS011;63773;42.282;22.782;2023-04-24T08:05:46;6.90;;;4.07;;
75195;SDS011;63773;42.282;22.782;2023-04-24T08:08:12;6.40;;;3.90;;
75195;SDS011;63773;42.282;22.782;2023-04-24T08:10:38;6.20;;;3.70;;
75195;SDS011;63773;42.282;22.782;2023-04-24T08:13:04;6.80;;;4.32;;
75195;SDS011;63773;42.282;22.782;2023-04-24T08:15:30;8.75;;;3.85;;
75195;SDS011;63773;42.282;22.782;2023-04-24T08:17:55;4.47;;;3.30;;
75195;SDS011;63773;42.282;22.782;2023-04-24T08:20:21;6.28;;;3.92;;
75195;SDS011;63773;42.282;22.782;2023-04-24T08:22:47;7.53;;;4.07;;
75195;SDS011;63773;42.282;22.782;2023-04-24T08:25:13;6.88;;;3.55;;
75195;SDS011;63773;42.282;22.782;2023-04-24T08:27:39;7.78;;;4.60;;
75195;SDS011;63773;42.282;22.782;2023-04-24T08:30:05;5.10;;;3.80;;
75195;SDS011;63773;42.282;22.782;2023-04-24T08:32:31;6.10;;;3.53;;
75195;SDS011;63773;42.282;22.782;2023-04-24T08:34:56;6.10;;;3.97;;
75195;SDS011;63773;42.282;22.782;2023-04-24T08:37:22;8.05;;;4.18;;
75195;SDS011;63773;42.282;22.782;2023-04-24T08:39:49;10.52;;;5.32;;
75195;SDS011;63773;42.282;22.782;2023-04-24T08:42:15;10.00;;;3.72;;
75195;SDS011;63773;42.282;22.782;2023-04-24T08:44:41;12.20;;;4.65;;
75195;SDS011;63773;42.282;22.782;2023-04-24T08:47:07;6.72;;;4.05;;
75195;SDS011;63773;42.282;22.782;2023-04-24T08:49:33;6.38;;;3.47;;
75195;SDS011;63773;42.282;22.782;2023-04-24T08:51:59;5.97;;;3.92;;
75195;SDS011;63773;42.282;22.782;2023-04-24T08:54:25;6.85;;;3.80;;
75195;SDS011;63773;42.282;22.782;2023-04-24T08:56:53;6.53;;;3.80;;
75195;SDS011;63773;42.282;22.782;2023-04-24T08:59:21;5.40;;;3.83;;
75195;SDS011;63773;42.282;22.782;2023-04-24T09:01:47;8.40;;;3.83;;
75195;SDS011;63773;42.282;22.782;2023-04-24T09:04:15;7.47;;;3.70;;
75195;SDS011;63773;42.282;22.782;2023-04-24T09:06:44;5.03;;;3.33;;
75195;SDS011;63773;42.282;22.782;2023-04-24T09:09:10;4.15;;;3.30;;
75195;SDS011;63773;42.282;22.782;2023-04-24T09:11:36;5.80;;;3.00;;
75195;SDS011;63773;42.282;22.782;2023-04-24T09:14:02;5.90;;;4.03;;
75195;SDS011;63773;42.282;22.782;2023-04-24T09:16:28;7.85;;;4.15;;
75195;SDS011;63773;42.282;22.782;2023-04-24T09:18:55;5.07;;;3.53;;
75195;SDS011;63773;42.282;22.782;2023-04-24T09:21:21;7.03;;;3.30;;
75195;SDS011;63773;42.282;22.782;2023-04-24T09:23:57;6.03;;;3.10;;
75195;SDS011;63773;42.282;22.782;2023-04-24T09:26:23;6.10;;;3.33;;
75195;SDS011;63773;42.282;22.782;2023-04-24T09:28:49;4.45;;;3.17;;
75195;SDS011;63773;42.282;22.782;2023-04-24T09:31:15;6.63;;;3.55;;
75195;SDS011;63773;42.282;22.782;2023-04-24T09:34:02;8.85;;;3.40;;
75195;SDS011;63773;42.282;22.782;2023-04-24T09:36:34;5.75;;;3.60;;
75195;SDS011;63773;42.282;22.782;2023-04-24T09:41:33;10.02;;;3.38;;
75195;SDS011;63773;42.282;22.782;2023-04-24T09:44:10;5.95;;;3.35;;
75195;SDS011;63773;42.282;22.782;2023-04-24T09:46:40;5.50;;;3.58;;
75195;SDS011;63773;42.282;22.782;2023-04-24T09:49:10;6.05;;;3.03;;
75195;SDS011;63773;42.282;22.782;2023-04-24T09:51:38;6.45;;;3.78;;
75195;SDS011;63773;42.282;22.782;2023-04-24T09:54:05;5.45;;;3.55;;
75195;SDS011;63773;42.282;22.782;2023-04-24T09:56:41;5.85;;;3.55;;
75195;SDS011;63773;42.282;22.782;2023-04-24T09:59:08;8.85;;;3.58;;
75195;SDS011;63773;42.282;22.782;2023-04-24T10:01:34;6.40;;;3.28;;
75195;SDS011;63773;42.282;22.782;2023-04-24T10:04:00;5.80;;;3.72;;
75195;SDS011;63773;42.282;22.782;2023-04-24T10:06:35;5.05;;;3.05;;
75195;SDS011;63773;42.282;22.782;2023-04-24T10:09:01;6.78;;;3.65;;
75195;SDS011;63773;42.282;22.782;2023-04-24T10:11:28;5.70;;;3.53;;
75195;SDS011;63773;42.282;22.782;2023-04-24T10:13:55;5.65;;;3.45;;
75195;SDS011;63773;42.282;22.782;2023-04-24T10:16:22;4.88;;;3.90;;
75195;SDS011;63773;42.282;22.782;2023-04-24T10:18:48;6.30;;;3.60;;
75195;SDS011;63773;42.282;22.782;2023-04-24T10:21:14;7.63;;;3.47;;
75195;SDS011;63773;42.282;22.782;2023-04-24T10:23:40;5.75;;;3.53;;
75195;SDS011;63773;42.282;22.782;2023-04-24T10:26:08;5.82;;;3.42;;
75195;SDS011;63773;42.282;22.782;2023-04-24T10:28:36;4.70;;;3.90;;
75195;SDS011;63773;42.282;22.782;2023-04-24T10:31:01;4.47;;;3.65;;
75195;SDS011;63773;42.282;22.782;2023-04-24T10:33:27;8.35;;;3.90;;
75195;SDS011;63773;42.282;22.782;2023-04-24T10:35:55;6.07;;;3.53;;
75195;SDS011;63773;42.282;22.782;2023-04-24T10:38:24;4.25;;;3.45;;
75195;SDS011;63773;42.282;22.782;2023-04-24T10:40:51;3.80;;;3.10;;
75195;SDS011;63773;42.282;22.782;2023-04-24T10:43:23;7.63;;;4.53;;
75195;SDS011;63773;42.282;22.782;2023-04-24T10:46:09;5.38;;;3.53;;
75195;SDS011;63773;42.282;22.782;2023-04-24T10:48:41;4.50;;;3.30;;
75195;SDS011;63773;42.282;22.782;2023-04-24T10:51:11;5.70;;;3.38;;
75195;SDS011;63773;42.282;22.782;2023-04-24T10:53:38;8.73;;;3.85;;
75195;SDS011;63773;42.282;22.782;2023-04-24T10:56:04;5.22;;;3.83;;
75195;SDS011;63773;42.282;22.782;2023-04-24T10:58:38;6.60;;;3.95;;
75195;SDS011;63773;42.282;22.782;2023-04-24T11:01:31;5.25;;;3.78;;
75195;SDS011;63773;42.282;22.782;2023-04-24T11:03:58;4.50;;;3.20;;
75195;SDS011;63773;42.282;22.782;2023-04-24T11:06:29;4.35;;;3.35;;
75195;SDS011;63773;42.282;22.782;2023-04-24T11:09:03;5.90;;;3.25;;
75195;SDS011;63773;42.282;22.782;2023-04-24T11:11:31;5.60;;;3.00;;
75195;SDS011;63773;42.282;22.782;2023-04-24T11:18:51;5.07;;;3.10;;
75195;SDS011;63773;42.282;22.782;2023-04-24T11:21:22;4.68;;;3.47;;
75195;SDS011;63773;42.282;22.782;2023-04-24T11:23:47;4.40;;;3.13;;
75195;SDS011;63773;42.282;22.782;2023-04-24T11:26:17;7.30;;;3.78;;
75195;SDS011;63773;42.282;22.782;2023-04-24T11:28:45;5.50;;;3.35;;
75195;SDS011;63773;42.282;22.782;2023-04-24T11:34:13;7.53;;;3.08;;
75195;SDS011;63773;42.282;22.782;2023-04-24T11:36:40;5.38;;;3.47;;
75195;SDS011;63773;42.282;22.782;2023-04-24T11:39:08;6.13;;;3.28;;
75195;SDS011;63773;42.282;22.782;2023-04-24T11:41:35;4.15;;;2.95;;
75195;SDS011;63773;42.282;22.782;2023-04-24T11:44:00;5.30;;;3.50;;
75195;SDS011;63773;42.282;22.782;2023-04-24T11:48:55;5.20;;;2.63;;
75195;SDS011;63773;42.282;22.782;2023-04-24T11:53:50;5.10;;;2.80;;
75195;SDS011;63773;42.282;22.782;2023-04-24T11:56:19;5.38;;;3.17;;
75195;SDS011;63773;42.282;22.782;2023-04-24T11:58:45;5.03;;;3.33;;
75195;SDS011;63773;42.282;22.782;2023-04-24T12:01:12;3.90;;;2.63;;
75195;SDS011;63773;42.282;22.782;2023-04-24T12:03:37;6.55;;;3.20;;
75195;SDS011;63773;42.282;22.782;2023-04-24T12:06:09;4.47;;;3.05;;
75195;SDS011;63773;42.282;22.782;2023-04-24T12:08:36;5.88;;;2.70;;
75195;SDS011;63773;42.282;22.782;2023-04-24T12:11:06;5.25;;;3.42;;
75195;SDS011;63773;42.282;22.782;2023-04-24T12:13:33;3.72;;;2.47;;
75195;SDS011;63773;42.282;22.782;2023-04-24T12:15:59;5.30;;;3.33;;
75195;SDS011;63773;42.282;22.782;2023-04-24T12:18:26;4.00;;;2.47;;
75195;SDS011;63773;42.282;22.782;2023-04-24T12:20:52;5.85;;;2.83;;
75195;SDS011;63773;42.282;22.782;2023-04-24T12:23:32;14.27;;;9.70;;
75195;SDS011;63773;42.282;22.782;2023-04-24T12:26:03;10.07;;;5.72;;
75195;SDS011;63773;42.282;22.782;2023-04-24T12:28:36;3.53;;;2.22;;
75195;SDS011;63773;42.282;22.782;2023-04-24T12:31:02;4.97;;;2.47;;
75195;SDS011;63773;42.282;22.782;2023-04-24T12:33:28;5.50;;;2.90;;
75195;SDS011;63773;42.282;22.782;2023-04-24T12:35:58;3.85;;;2.97;;
75195;SDS011;63773;42.282;22.782;2023-04-24T12:38:25;5.45;;;3.17;;
75195;SDS011;63773;42.282;22.782;2023-04-24T12:41:02;5.65;;;3.28;;
75195;SDS011;63773;42.282;22.782;2023-04-24T12:43:32;6.60;;;3.42;;
75195;SDS011;63773;42.282;22.782;2023-04-24T12:45:58;6.00;;;3.13;;
75195;SDS011;63773;42.282;22.782;2023-04-24T12:48:24;6.35;;;3.42;;
75195;SDS011;63773;42.282;22.782;2023-04-24T12:50:50;4.30;;;3.28;;
75195;SDS011;63773;42.282;22.782;2023-04-24T12:53:16;5.30;;;3.40;;
75195;SDS011;63773;42.282;22.782;2023-04-24T12:55:41;5.93;;;3.30;;
75195;SDS011;63773;42.282;22.782;2023-04-24T12:58:07;4.30;;;2.80;;
75195;SDS011;63773;42.282;22.782;2023-04-24T13:00:32;4.45;;;2.63;;
75195;SDS011;63773;42.282;22.782;2023-04-24T13:02:58;4.65;;;2.97;;
75195;SDS011;63773;42.282;22.782;2023-04-24T13:05:23;4.63;;;2.63;;
75195;SDS011;63773;42.282;22.782;2023-04-24T13:07:49;5.25;;;3.13;;
75195;SDS011;63773;42.282;22.782;2023-04-24T13:10:15;7.88;;;3.40;;
75195;SDS011;63773;42.282;22.782;2023-04-24T13:12:40;3.35;;;2.58;;
75195;SDS011;63773;42.282;22.782;2023-04-24T13:15:06;12.93;;;4.63;;
75195;SDS011;63773;42.282;22.782;2023-04-24T13:17:32;7.47;;;3.15;;
75195;SDS011;63773;42.282;22.782;2023-04-24T13:19:58;7.22;;;3.17;;
75195;SDS011;63773;42.282;22.782;2023-04-24T13:22:23;11.05;;;4.00;;
75195;SDS011;63773;42.282;22.782;2023-04-24T13:24:49;6.50;;;3.05;;
75195;SDS011;63773;42.282;22.782;2023-04-24T13:27:15;5.18;;;2.33;;
75195;SDS011;63773;42.282;22.782;2023-04-24T13:29:41;7.35;;;3.63;;
75195;SDS011;63773;42.282;22.782;2023-04-24T13:32:07;5.65;;;2.80;;
75195;SDS011;63773;42.282;22.782;2023-04-24T13:34:33;4.53;;;2.40;;
75195;SDS011;63773;42.282;22.782;2023-04-24T13:37:00;5.78;;;2.78;;
75195;SDS011;63773;42.282;22.782;2023-04-24T13:39:25;5.68;;;2.75;;
75195;SDS011;63773;42.282;22.782;2023-04-24T13:41:51;3.70;;;2.60;;
75195;SDS011;63773;42.282;22.782;2023-04-24T13:44:17;4.55;;;2.67;;
75195;SDS011;63773;42.282;22.782;2023-04-24T13:46:46;4.63;;;3.05;;
75195;SDS011;63773;42.282;22.782;2023-04-24T13:49:13;4.82;;;2.50;;
75195;SDS011;63773;42.282;22.782;2023-04-24T13:51:39;3.92;;;2.70;;
75195;SDS011;63773;42.282;22.782;2023-04-24T13:54:05;4.70;;;2.80;;
75195;SDS011;63773;42.282;22.782;2023-04-24T13:56:31;4.38;;;3.35;;
75195;SDS011;63773;42.282;22.782;2023-04-24T13:58:56;5.93;;;2.83;;
75195;SDS011;63773;42.282;22.782;2023-04-24T14:01:22;7.13;;;3.10;;
75195;SDS011;63773;42.282;22.782;2023-04-24T14:03:54;3.97;;;3.05;;
75195;SDS011;63773;42.282;22.782;2023-04-24T14:06:21;5.95;;;3.33;;
75195;SDS011;63773;42.282;22.782;2023-04-24T14:08:48;5.72;;;3.10;;
75195;SDS011;63773;42.282;22.782;2023-04-24T14:11:15;5.13;;;3.33;;
75195;SDS011;63773;42.282;22.782;2023-04-24T14:13:41;6.07;;;2.97;;
75195;SDS011;63773;42.282;22.782;2023-04-24T14:16:07;7.22;;;2.60;;
75195;SDS011;63773;42.282;22.782;2023-04-24T14:18:32;5.15;;;2.97;;
75195;SDS011;63773;42.282;22.782;2023-04-24T14:20:58;3.25;;;2.45;;
75195;SDS011;63773;42.282;22.782;2023-04-24T14:23:26;5.03;;;3.33;;
75195;SDS011;63773;42.282;22.782;2023-04-24T14:25:51;5.80;;;2.88;;
75195;SDS011;63773;42.282;22.782;2023-04-24T14:28:18;3.72;;;2.83;;
75195;SDS011;63773;42.282;22.782;2023-04-24T14:30:45;4.38;;;3.20;;
75195;SDS011;63773;42.282;22.782;2023-04-24T14:33:10;4.03;;;2.95;;
75195;SDS011;63773;42.282;22.782;2023-04-24T14:35:37;4.38;;;2.88;;
75195;SDS011;63773;42.282;22.782;2023-04-24T14:38:03;5.97;;;2.67;;
75195;SDS011;63773;42.282;22.782;2023-04-24T14:40:28;4.63;;;3.08;;
75195;SDS011;63773;42.282;22.782;2023-04-24T14:42:54;5.32;;;2.92;;
75195;SDS011;63773;42.282;22.782;2023-04-24T14:45:20;5.07;;;3.40;;
75195;SDS011;63773;42.282;22.782;2023-04-24T14:47:45;5.82;;;3.00;;
75195;SDS011;63773;42.282;22.782;2023-04-24T14:50:11;4.95;;;2.97;;